sensor_id;sensor_type;location;lat;lon;timestamp;pressure;altitude;pressure_sealevel;temperature;humidity
14041;BME280;7095;51.388;6.196;2023-02-19T00:01:52;109254.63;;;-145.32;100.00
14041;BME280;7095;51.388;6.196;2023-02-19T00:04:21;109513.28;;;-145.32;100.00
14041;BME280;7095;51.388;6.196;2023-02-19T00:06:49;110030.59;;;-145.32;100.00
14041;BME280;7095;51.388;6.196;2023-02-19T00:09:18;110289.28;;;-145.32;100.00
14041;BME280;7095;51.388;6.196;2023-02-19T00:11:49;110548.00;;;-145.32;100.00
14041;BME280;7095;51.388;6.196;2023-02-19T00:14:19;110806.75;;;-145.32;100.00
14041;BME280;7095;51.388;6.196;2023-02-19T00:16:48;110806.75;;;-145.32;100.00
14041;BME280;7095;51.388;6.196;2023-02-19T00:19:18;111065.50;;;-145.32;100.00
14041;BME280;7095;51.388;6.196;2023-02-19T00:21:49;111065.50;;;-145.32;100.00
14041;BME280;7095;51.388;6.196;2023-02-19T00:24:20;111065.50;;;-145.32;100.00
14041;BME280;7095;51.388;6.196;2023-02-19T00:26:50;110806.75;;;-145.32;100.00
14041;BME280;7095;51.388;6.196;2023-02-19T00:29:20;110806.75;;;-145.32;100.00
14041;BME280;7095;51.388;6.196;2023-02-19T00:31:49;110806.75;;;-145.32;100.00
14041;BME280;7095;51.388;6.196;2023-02-19T00:34:18;110806.75;;;-145.32;100.00
14041;BME280;7095;51.388;6.196;2023-02-19T00:36:46;110548.00;;;-145.32;100.00
14041;BME280;7095;51.388;6.196;2023-02-19T00:39:17;110289.28;;;-145.32;100.00
14041;BME280;7095;51.388;6.196;2023-02-19T00:41:47;110030.59;;;-145.32;100.00
14041;BME280;7095;51.388;6.196;2023-02-19T00:44:17;110030.59;;;-145.32;100.00
14041;BME280;7095;51.388;6.196;2023-02-19T00:46:47;109771.94;;;-145.32;100.00
14041;BME280;7095;51.388;6.196;2023-02-19T00:49:17;109254.63;;;-145.32;100.00
14041;BME280;7095;51.388;6.196;2023-02-19T00:51:47;108996.00;;;-145.32;100.00
14041;BME280;7095;51.388;6.196;2023-02-19T00:54:16;108996.00;;;-145.32;100.00
14041;BME280;7095;51.388;6.196;2023-02-19T00:56:45;108996.00;;;-145.32;100.00
14041;BME280;7095;51.388;6.196;2023-02-19T00:59:13;108996.00;;;-145.32;100.00
14041;BME280;7095;51.388;6.196;2023-02-19T01:01:44;108996.00;;;-145.32;100.00
14041;BME280;7095;51.388;6.196;2023-02-19T01:04:13;108737.41;;;-145.32;100.00
14041;BME280;7095;51.388;6.196;2023-02-19T01:06:42;108737.41;;;-145.32;100.00
14041;BME280;7095;51.388;6.196;2023-02-19T01:09:11;108478.84;;;-145.32;100.00
14041;BME280;7095;51.388;6.196;2023-02-19T01:11:40;108220.28;;;-145.32;100.00
14041;BME280;7095;51.388;6.196;2023-02-19T01:14:09;107961.72;;;-145.32;100.00
14041;BME280;7095;51.388;6.196;2023-02-19T01:16:37;107703.22;;;-145.32;100.00
14041;BME280;7095;51.388;6.196;2023-02-19T01:19:07;107703.22;;;-145.32;100.00
14041;BME280;7095;51.388;6.196;2023-02-19T01:21:35;107444.69;;;-145.32;100.00
14041;BME280;7095;51.388;6.196;2023-02-19T01:24:04;106927.75;;;-145.32;100.00
14041;BME280;7095;51.388;6.196;2023-02-19T01:26:33;106410.88;;;-145.32;100.00
14041;BME280;7095;51.388;6.196;2023-02-19T01:29:02;106152.47;;;-145.32;100.00
14041;BME280;7095;51.388;6.196;2023-02-19T01:31:31;105894.09;;;-145.32;100.00
14041;BME280;7095;51.388;6.196;2023-02-19T01:34:02;105119.03;;;-145.32;100.00
14041;BME280;7095;51.388;6.196;2023-02-19T01:36:33;104344.16;;;-145.32;100.00
14041;BME280;7095;51.388;6.196;2023-02-19T01:39:04;103827.66;;;-145.32;100.00
14041;BME280;7095;51.388;6.196;2023-02-19T01:41:36;103569.44;;;-145.32;100.00
14041;BME280;7095;51.388;6.196;2023-02-19T01:44:56;102278.66;;;-145.32;100.00
14041;BME280;7095;51.388;6.196;2023-02-19T01:46:56;100988.31;;;-145.32;100.00
14041;BME280;7095;51.388;6.196;2023-02-19T01:49:26;100730.31;;;-145.32;100.00
14041;BME280;7095;51.388;6.196;2023-02-19T01:51:59;99956.41;;;-145.32;100.00
14041;BME280;7095;51.388;6.196;2023-02-19T01:54:31;98409.13;;;-145.32;100.00
14041;BME280;7095;51.388;6.196;2023-02-19T01:57:05;98924.81;;;-145.32;100.00
14041;BME280;7095;51.388;6.196;2023-02-19T01:59:35;98151.31;;;-145.32;100.00
14041;BME280;7095;51.388;6.196;2023-02-19T02:02:04;98151.31;;;-145.32;100.00
14041;BME280;7095;51.388;6.196;2023-02-19T02:04:33;98151.31;;;-145.32;100.00
14041;BME280;7095;51.388;6.196;2023-02-19T02:07:04;98666.94;;;-145.32;100.00
14041;BME280;7095;51.388;6.196;2023-02-19T02:09:54;98151.31;;;-145.32;100.00
14041;BME280;7095;51.388;6.196;2023-02-19T02:12:41;98409.13;;;-145.32;100.00
14041;BME280;7095;51.388;6.196;2023-02-19T02:15:09;98666.94;;;-145.32;100.00
14041;BME280;7095;51.388;6.196;2023-02-19T02:17:45;99182.69;;;-145.32;100.00
14041;BME280;7095;51.388;6.196;2023-02-19T02:20:41;98924.81;;;-145.32;100.00
14041;BME280;7095;51.388;6.196;2023-02-19T02:23:27;97635.72;;;-145.32;100.00
14041;BME280;7095;51.388;6.196;2023-02-19T02:26:07;97893.50;;;-145.32;100.00
14041;BME280;7095;51.388;6.196;2023-02-19T02:29:05;98151.31;;;-145.32;100.00
14041;BME280;7095;51.388;6.196;2023-02-19T02:31:42;98409.13;;;-145.32;100.00
14041;BME280;7095;51.388;6.196;2023-02-19T02:34:17;98151.31;;;-145.32;100.00
14041;BME280;7095;51.388;6.196;2023-02-19T02:36:48;96862.50;;;-145.32;100.00
14041;BME280;7095;51.388;6.196;2023-02-19T02:39:20;95574.19;;;-145.32;100.00
14041;BME280;7095;51.388;6.196;2023-02-19T02:41:54;95316.59;;;-145.32;100.00
14041;BME280;7095;51.388;6.196;2023-02-19T02:44:39;95574.19;;;-145.32;100.00
14041;BME280;7095;51.388;6.196;2023-02-19T02:47:10;95574.19;;;-145.32;100.00
14041;BME280;7095;51.388;6.196;2023-02-19T02:49:59;93771.38;;;-145.32;100.00
14041;BME280;7095;51.388;6.196;2023-02-19T02:52:37;93256.44;;;-145.32;100.00
14041;BME280;7095;51.388;6.196;2023-02-19T02:55:22;92484.19;;;-145.32;100.00
14041;BME280;7095;51.388;6.196;2023-02-19T02:57:52;91197.50;;;-145.32;100.00
14041;BME280;7095;51.388;6.196;2023-02-19T03:00:21;90425.72;;;-145.32;100.00
14041;BME280;7095;51.388;6.196;2023-02-19T03:02:55;90168.50;;;-145.32;100.00
14041;BME280;7095;51.388;6.196;2023-02-19T03:05:24;89654.13;;;-145.32;100.00
14041;BME280;7095;51.388;6.196;2023-02-19T03:08:13;88368.50;;;-145.32;100.00
14041;BME280;7095;51.388;6.196;2023-02-19T03:10:47;86055.56;;;-145.32;100.00
14041;BME280;7095;51.388;6.196;2023-02-19T03:13:21;86569.41;;;-145.32;100.00
14041;BME280;7095;51.388;6.196;2023-02-19T03:16:15;86312.47;;;-145.32;100.00
14041;BME280;7095;51.388;6.196;2023-02-19T03:19:04;84000.91;;;-145.32;100.00
14041;BME280;7095;51.388;6.196;2023-02-19T03:21:51;83744.16;;;-145.32;100.00
14041;BME280;7095;51.388;6.196;2023-02-19T03:24:33;84257.66;;;-145.32;100.00
14041;BME280;7095;51.388;6.196;2023-02-19T03:27:20;81947.50;;;-145.32;100.00
14041;BME280;7095;51.388;6.196;2023-02-19T03:29:56;81947.50;;;-145.32;100.00
14041;BME280;7095;51.388;6.196;2023-02-19T03:32:29;78613.28;;;-145.32;100.00
14041;BME280;7095;51.388;6.196;2023-02-19T03:35:05;77844.31;;;-145.32;100.00
14041;BME280;7095;51.388;6.196;2023-02-19T03:37:38;77331.78;;;-145.32;100.00
14041;BME280;7095;51.388;6.196;2023-02-19T03:40:09;76819.28;;;-145.32;100.00
14041;BME280;7095;51.388;6.196;2023-02-19T03:42:42;77331.78;;;-145.32;100.00
14041;BME280;7095;51.388;6.196;2023-02-19T03:45:30;76819.28;;;-145.32;100.00
14041;BME280;7095;51.388;6.196;2023-02-19T03:48:14;77844.31;;;-145.32;100.00
14041;BME280;7095;51.388;6.196;2023-02-19T03:50:56;78613.28;;;-145.32;100.00
14041;BME280;7095;51.388;6.196;2023-02-19T03:53:31;78613.28;;;-145.32;100.00
14041;BME280;7095;51.388;6.196;2023-02-19T03:56:07;78356.94;;;-145.32;100.00
14041;BME280;7095;51.388;6.196;2023-02-19T03:58:47;77844.31;;;-145.32;100.00
14041;BME280;7095;51.388;6.196;2023-02-19T04:01:22;77588.03;;;-145.32;100.00
14041;BME280;7095;51.388;6.196;2023-02-19T04:03:57;78613.28;;;-145.32;100.00
14041;BME280;7095;51.388;6.196;2023-02-19T04:06:30;78100.63;;;-145.32;100.00
14041;BME280;7095;51.388;6.196;2023-02-19T04:09:02;78100.63;;;-145.32;100.00
14041;BME280;7095;51.388;6.196;2023-02-19T04:11:32;76050.72;;;-145.32;100.00
14041;BME280;7095;51.388;6.196;2023-02-19T04:14:06;76563.09;;;-145.32;100.00
14041;BME280;7095;51.388;6.196;2023-02-19T04:16:39;75794.56;;;-145.32;100.00
14041;BME280;7095;51.388;6.196;2023-02-19T04:19:13;74770.16;;;-145.32;100.00
14041;BME280;7095;51.388;6.196;2023-02-19T04:21:45;75538.44;;;-145.32;100.00
14041;BME280;7095;51.388;6.196;2023-02-19T04:24:18;77075.53;;;-145.32;100.00
14041;BME280;7095;51.388;6.196;2023-02-19T04:26:49;76819.28;;;-145.32;100.00
14041;BME280;7095;51.388;6.196;2023-02-19T04:29:18;77331.78;;;-145.32;100.00
14041;BME280;7095;51.388;6.196;2023-02-19T04:31:48;78100.63;;;-145.32;100.00
14041;BME280;7095;51.388;6.196;2023-02-19T04:34:17;78613.28;;;-145.32;100.00
14041;BME280;7095;51.388;6.196;2023-02-19T04:36:47;80151.75;;;-145.32;100.00
14041;BME280;7095;51.388;6.196;2023-02-19T04:39:15;80151.75;;;-145.32;100.00
14041;BME280;7095;51.388;6.196;2023-02-19T04:41:43;79895.28;;;-145.32;100.00
14041;BME280;7095;51.388;6.196;2023-02-19T04:44:12;80921.25;;;-145.32;100.00
14041;BME280;7095;51.388;6.196;2023-02-19T04:46:40;80921.25;;;-145.32;100.00
14041;BME280;7095;51.388;6.196;2023-02-19T04:49:09;80921.25;;;-145.32;100.00
14041;BME280;7095;51.388;6.196;2023-02-19T04:51:38;81177.78;;;-145.32;100.00
14041;BME280;7095;51.388;6.196;2023-02-19T04:54:08;82204.09;;;-145.32;100.00
14041;BME280;7095;51.388;6.196;2023-02-19T04:56:36;82460.72;;;-145.32;100.00
14041;BME280;7095;51.388;6.196;2023-02-19T04:59:05;82974.03;;;-145.32;100.00
14041;BME280;7095;51.388;6.196;2023-02-19T05:01:33;83230.72;;;-145.32;100.00
14041;BME280;7095;51.388;6.196;2023-02-19T05:04:04;84000.91;;;-145.32;100.00
14041;BME280;7095;51.388;6.196;2023-02-19T05:06:32;84257.66;;;-145.32;100.00
14041;BME280;7095;51.388;6.196;2023-02-19T05:09:01;84257.66;;;-145.32;100.00
14041;BME280;7095;51.388;6.196;2023-02-19T05:11:31;84000.91;;;-145.32;100.00
14041;BME280;7095;51.388;6.196;2023-02-19T05:14:00;83744.16;;;-145.32;100.00
14041;BME280;7095;51.388;6.196;2023-02-19T05:16:28;84000.91;;;-145.32;100.00
14041;BME280;7095;51.388;6.196;2023-02-19T05:18:57;83744.16;;;-145.32;100.00
14041;BME280;7095;51.388;6.196;2023-02-19T05:21:25;83230.72;;;-145.32;100.00
14041;BME280;7095;51.388;6.196;2023-02-19T05:23:54;82974.03;;;-145.32;100.00
14041;BME280;7095;51.388;6.196;2023-02-19T05:26:22;82974.03;;;-145.32;100.00
14041;BME280;7095;51.388;6.196;2023-02-19T05:28:52;83230.72;;;-145.32;100.00
14041;BME280;7095;51.388;6.196;2023-02-19T05:31:21;83487.44;;;-145.32;100.00
14041;BME280;7095;51.388;6.196;2023-02-19T05:33:49;83744.16;;;-145.32;100.00
14041;BME280;7095;51.388;6.196;2023-02-19T05:36:20;84257.66;;;-145.32;100.00
14041;BME280;7095;51.388;6.196;2023-02-19T05:38:51;84514.44;;;-145.32;100.00
14041;BME280;7095;51.388;6.196;2023-02-19T05:41:21;84257.66;;;-145.32;100.00
14041;BME280;7095;51.388;6.196;2023-02-19T05:43:50;84771.25;;;-145.32;100.00
14041;BME280;7095;51.388;6.196;2023-02-19T05:46:23;84257.66;;;-145.32;100.00
14041;BME280;7095;51.388;6.196;2023-02-19T05:48:52;84000.91;;;-145.32;100.00
14041;BME280;7095;51.388;6.196;2023-02-19T05:51:23;83487.44;;;-145.32;100.00
14041;BME280;7095;51.388;6.196;2023-02-19T05:53:54;83487.44;;;-145.32;100.00
14041;BME280;7095;51.388;6.196;2023-02-19T05:56:29;82204.09;;;-145.32;100.00
14041;BME280;7095;51.388;6.196;2023-02-19T05:58:59;82974.03;;;-145.32;100.00
14041;BME280;7095;51.388;6.196;2023-02-19T06:01:31;81690.91;;;-145.32;100.00
14041;BME280;7095;51.388;6.196;2023-02-19T06:03:59;80151.75;;;-145.32;100.00
14041;BME280;7095;51.388;6.196;2023-02-19T06:06:30;80408.22;;;-145.32;100.00
14041;BME280;7095;51.388;6.196;2023-02-19T06:08:58;80408.22;;;-145.32;100.00
14041;BME280;7095;51.388;6.196;2023-02-19T06:11:28;81434.31;;;-145.32;100.00
14041;BME280;7095;51.388;6.196;2023-02-19T06:13:56;80408.22;;;-145.32;100.00
14041;BME280;7095;51.388;6.196;2023-02-19T06:16:25;79638.84;;;-145.32;100.00
14041;BME280;7095;51.388;6.196;2023-02-19T06:18:55;80408.22;;;-145.32;100.00
14041;BME280;7095;51.388;6.196;2023-02-19T06:21:23;79895.28;;;-145.32;100.00
14041;BME280;7095;51.388;6.196;2023-02-19T06:23:53;80151.75;;;-145.32;100.00
14041;BME280;7095;51.388;6.196;2023-02-19T06:26:23;80408.22;;;-145.32;100.00
14041;BME280;7095;51.388;6.196;2023-02-19T06:28:52;80151.75;;;-145.32;100.00
14041;BME280;7095;51.388;6.196;2023-02-19T06:31:21;80664.72;;;-145.32;100.00
14041;BME280;7095;51.388;6.196;2023-02-19T06:33:49;79895.28;;;-145.32;100.00
14041;BME280;7095;51.388;6.196;2023-02-19T06:36:19;80408.22;;;-145.32;100.00
14041;BME280;7095;51.388;6.196;2023-02-19T06:38:48;79895.28;;;-145.32;100.00
14041;BME280;7095;51.388;6.196;2023-02-19T06:41:16;80408.22;;;-145.32;100.00
14041;BME280;7095;51.388;6.196;2023-02-19T06:43:45;80408.22;;;-145.32;100.00
14041;BME280;7095;51.388;6.196;2023-02-19T06:46:14;79638.84;;;-145.32;100.00
14041;BME280;7095;51.388;6.196;2023-02-19T06:48:43;80151.75;;;-145.32;100.00
14041;BME280;7095;51.388;6.196;2023-02-19T06:51:13;78356.94;;;-145.32;100.00
14041;BME280;7095;51.388;6.196;2023-02-19T06:53:45;78869.66;;;-145.32;100.00
14041;BME280;7095;51.388;6.196;2023-02-19T06:56:22;78100.63;;;-145.32;100.00
14041;BME280;7095;51.388;6.196;2023-02-19T06:58:52;78613.28;;;-145.32;100.00
14041;BME280;7095;51.388;6.196;2023-02-19T07:01:21;78613.28;;;-145.32;100.00
14041;BME280;7095;51.388;6.196;2023-02-19T07:03:50;79895.28;;;-145.32;100.00
14041;BME280;7095;51.388;6.196;2023-02-19T07:06:21;81690.91;;;-145.32;100.00
14041;BME280;7095;51.388;6.196;2023-02-19T07:08:55;82717.38;;;-145.32;100.00
14041;BME280;7095;51.388;6.196;2023-02-19T07:11:25;84000.91;;;-145.32;100.00
14041;BME280;7095;51.388;6.196;2023-02-19T07:13:54;85541.78;;;-145.32;100.00
14041;BME280;7095;51.388;6.196;2023-02-19T07:16:23;86569.41;;;-145.32;100.00
14041;BME280;7095;51.388;6.196;2023-02-19T07:18:52;87083.34;;;-145.32;100.00
14041;BME280;7095;51.388;6.196;2023-02-19T07:21:23;87597.34;;;-145.32;100.00
14041;BME280;7095;51.388;6.196;2023-02-19T07:23:52;87854.38;;;-145.32;100.00
14041;BME280;7095;51.388;6.196;2023-02-19T07:26:22;88111.41;;;-145.32;100.00
14041;BME280;7095;51.388;6.196;2023-02-19T07:28:51;88368.50;;;-145.32;100.00
14041;BME280;7095;51.388;6.196;2023-02-19T07:31:22;88111.41;;;-145.32;100.00
14041;BME280;7095;51.388;6.196;2023-02-19T07:33:51;88625.56;;;-145.32;100.00
14041;BME280;7095;51.388;6.196;2023-02-19T07:36:20;88111.41;;;-145.32;100.00
14041;BME280;7095;51.388;6.196;2023-02-19T07:38:52;87854.38;;;-145.32;100.00
14041;BME280;7095;51.388;6.196;2023-02-19T07:41:23;87083.34;;;-145.32;100.00
14041;BME280;7095;51.388;6.196;2023-02-19T07:43:55;86312.47;;;-145.32;100.00
14041;BME280;7095;51.388;6.196;2023-02-19T07:46:24;86569.41;;;-145.32;100.00
14041;BME280;7095;51.388;6.196;2023-02-19T07:48:52;85028.06;;;-145.32;100.00
14041;BME280;7095;51.388;6.196;2023-02-19T07:51:21;85541.78;;;-145.32;100.00
14041;BME280;7095;51.388;6.196;2023-02-19T07:53:49;85284.91;;;-145.32;100.00
14041;BME280;7095;51.388;6.196;2023-02-19T07:56:19;82974.03;;;-145.32;100.00
14041;BME280;7095;51.388;6.196;2023-02-19T07:58:51;82717.38;;;-145.32;100.00
14041;BME280;7095;51.388;6.196;2023-02-19T08:01:22;82460.72;;;-145.32;100.00
14041;BME280;7095;51.388;6.196;2023-02-19T08:04:12;82460.72;;;-145.32;100.00
14041;BME280;7095;51.388;6.196;2023-02-19T08:06:40;82460.72;;;-145.32;100.00
14041;BME280;7095;51.388;6.196;2023-02-19T08:09:09;81434.31;;;-145.32;100.00
14041;BME280;7095;51.388;6.196;2023-02-19T08:11:38;80151.75;;;-145.32;100.00
14041;BME280;7095;51.388;6.196;2023-02-19T08:14:26;75282.31;;;-145.32;100.00
14041;BME280;7095;51.388;6.196;2023-02-19T08:16:55;75026.22;;;-145.32;100.00
14041;BME280;7095;51.388;6.196;2023-02-19T08:19:24;76563.09;;;-145.32;100.00
14041;BME280;7095;51.388;6.196;2023-02-19T08:21:52;77588.03;;;-145.32;100.00
14041;BME280;7095;51.388;6.196;2023-02-19T08:24:20;77844.31;;;-145.32;100.00
14041;BME280;7095;51.388;6.196;2023-02-19T08:26:49;77588.03;;;-145.32;100.00
14041;BME280;7095;51.388;6.196;2023-02-19T08:29:17;77844.31;;;-145.32;100.00
14041;BME280;7095;51.388;6.196;2023-02-19T08:31:47;79382.44;;;-145.32;100.00
14041;BME280;7095;51.388;6.196;2023-02-19T08:34:16;79895.28;;;-145.32;100.00
14041;BME280;7095;51.388;6.196;2023-02-19T08:36:44;80921.25;;;-145.32;100.00
14041;BME280;7095;51.388;6.196;2023-02-19T08:39:12;79895.28;;;-145.32;100.00
14041;BME280;7095;51.388;6.196;2023-02-19T08:41:41;78356.94;;;-145.32;100.00
14041;BME280;7095;51.388;6.196;2023-02-19T08:44:09;79895.28;;;-145.32;100.00
14041;BME280;7095;51.388;6.196;2023-02-19T08:46:38;83230.72;;;-145.32;100.00
14041;BME280;7095;51.388;6.196;2023-02-19T08:49:08;81947.50;;;-145.32;100.00
14041;BME280;7095;51.388;6.196;2023-02-19T08:51:36;81690.91;;;-145.32;100.00
14041;BME280;7095;51.388;6.196;2023-02-19T08:54:04;84771.25;;;-145.32;100.00
14041;BME280;7095;51.388;6.196;2023-02-19T08:56:33;85541.78;;;-145.32;100.00
14041;BME280;7095;51.388;6.196;2023-02-19T08:59:01;87854.38;;;-145.32;100.00
14041;BME280;7095;51.388;6.196;2023-02-19T09:01:32;90940.22;;;-145.32;100.00
14041;BME280;7095;51.388;6.196;2023-02-19T09:04:01;93513.91;;;-145.32;100.00
14041;BME280;7095;51.388;6.196;2023-02-19T09:06:30;95316.59;;;-145.32;100.00
14041;BME280;7095;51.388;6.196;2023-02-19T09:08:59;96089.47;;;-145.32;100.00
14041;BME280;7095;51.388;6.196;2023-02-19T09:11:30;97377.97;;;-145.32;100.00
14041;BME280;7095;51.388;6.196;2023-02-19T09:13:59;98151.31;;;-145.32;100.00
14041;BME280;7095;51.388;6.196;2023-02-19T09:16:28;99182.69;;;-145.32;100.00
14041;BME280;7095;51.388;6.196;2023-02-19T09:18:56;100730.31;;;-145.32;100.00
14041;BME280;7095;51.388;6.196;2023-02-19T09:21:25;100472.31;;;-145.32;100.00
14041;BME280;7095;51.388;6.196;2023-02-19T09:23:55;99956.41;;;-145.32;100.00
14041;BME280;7095;51.388;6.196;2023-02-19T09:26:23;97635.72;;;-145.32;100.00
14041;BME280;7095;51.388;6.196;2023-02-19T09:28:52;97120.22;;;-145.32;100.00
14041;BME280;7095;51.388;6.196;2023-02-19T09:31:20;97893.50;;;-145.32;100.00
14041;BME280;7095;51.388;6.196;2023-02-19T09:33:49;94801.44;;;-145.32;100.00
14041;BME280;7095;51.388;6.196;2023-02-19T09:36:18;95059.00;;;-145.32;100.00
14041;BME280;7095;51.388;6.196;2023-02-19T09:38:47;92999.00;;;-145.32;100.00
14041;BME280;7095;51.388;6.196;2023-02-19T09:41:22;91454.81;;;-145.32;100.00
14041;BME280;7095;51.388;6.196;2023-02-19T09:43:53;88111.41;;;-145.32;100.00
14041;BME280;7095;51.388;6.196;2023-02-19T09:46:28;88111.41;;;-145.32;100.00
14041;BME280;7095;51.388;6.196;2023-02-19T09:49:02;89911.31;;;-145.32;100.00
14041;BME280;7095;51.388;6.196;2023-02-19T09:51:34;90168.50;;;-145.32;100.00
14041;BME280;7095;51.388;6.196;2023-02-19T09:54:05;87854.38;;;-145.32;100.00
14041;BME280;7095;51.388;6.196;2023-02-19T09:56:36;89654.13;;;-145.32;100.00
14041;BME280;7095;51.388;6.196;2023-02-19T09:59:05;89654.13;;;-145.32;100.00
14041;BME280;7095;51.388;6.196;2023-02-19T10:01:38;90940.22;;;-145.32;100.00
14041;BME280;7095;51.388;6.196;2023-02-19T10:04:09;91969.47;;;-145.32;100.00
14041;BME280;7095;51.388;6.196;2023-02-19T10:06:38;92741.59;;;-145.32;100.00
14041;BME280;7095;51.388;6.196;2023-02-19T10:09:17;87597.34;;;-145.32;100.00
14041;BME280;7095;51.388;6.196;2023-02-19T10:11:50;83230.72;;;-145.32;100.00
14041;BME280;7095;51.388;6.196;2023-02-19T10:14:24;81690.91;;;-145.32;100.00
14041;BME280;7095;51.388;6.196;2023-02-19T10:16:57;82204.09;;;-145.32;100.00
14041;BME280;7095;51.388;6.196;2023-02-19T10:19:27;80151.75;;;-145.32;100.00
14041;BME280;7095;51.388;6.196;2023-02-19T10:21:55;80151.75;;;-145.32;100.00
14041;BME280;7095;51.388;6.196;2023-02-19T10:24:26;80408.22;;;-145.32;100.00
14041;BME280;7095;51.388;6.196;2023-02-19T10:26:57;76819.28;;;-145.32;100.00
14041;BME280;7095;51.388;6.196;2023-02-19T10:29:25;76306.91;;;-145.32;100.00
14041;BME280;7095;51.388;6.196;2023-02-19T10:32:13;78869.66;;;-145.32;100.00
14041;BME280;7095;51.388;6.196;2023-02-19T10:34:43;80408.22;;;-145.32;100.00
14041;BME280;7095;51.388;6.196;2023-02-19T10:37:13;82204.09;;;-145.32;100.00
14041;BME280;7095;51.388;6.196;2023-02-19T10:39:44;84000.91;;;-145.32;100.00
14041;BME280;7095;51.388;6.196;2023-02-19T10:42:17;80921.25;;;-145.32;100.00
14041;BME280;7095;51.388;6.196;2023-02-19T10:44:50;85284.91;;;-145.32;100.00
14041;BME280;7095;51.388;6.196;2023-02-19T10:47:21;82717.38;;;-145.32;100.00
14041;BME280;7095;51.388;6.196;2023-02-19T10:49:51;80408.22;;;-145.32;100.00
14041;BME280;7095;51.388;6.196;2023-02-19T10:52:26;79382.44;;;-145.32;100.00
14041;BME280;7095;51.388;6.196;2023-02-19T10:54:56;76306.91;;;-145.32;100.00
14041;BME280;7095;51.388;6.196;2023-02-19T10:57:30;75794.56;;;-145.32;100.00
14041;BME280;7095;51.388;6.196;2023-02-19T11:00:04;75538.44;;;-145.32;100.00
14041;BME280;7095;51.388;6.196;2023-02-19T11:02:45;78100.63;;;-145.32;100.00
14041;BME280;7095;51.388;6.196;2023-02-19T11:05:16;78613.28;;;-145.32;100.00
14041;BME280;7095;51.388;6.196;2023-02-19T11:07:49;77844.31;;;-145.32;100.00
14041;BME280;7095;51.388;6.196;2023-02-19T11:10:24;79126.03;;;-145.32;100.00
14041;BME280;7095;51.388;6.196;2023-02-19T11:12:57;81177.78;;;-145.32;100.00
14041;BME280;7095;51.388;6.196;2023-02-19T11:15:29;82460.72;;;-145.32;100.00
14041;BME280;7095;51.388;6.196;2023-02-19T11:18:14;85028.06;;;-145.32;100.00
14041;BME280;7095;51.388;6.196;2023-02-19T11:20:48;86569.41;;;-145.32;100.00
14041;BME280;7095;51.388;6.196;2023-02-19T11:23:24;86826.34;;;-145.32;100.00
14041;BME280;7095;51.388;6.196;2023-02-19T11:25:55;87854.38;;;-145.32;100.00
14041;BME280;7095;51.388;6.196;2023-02-19T11:28:32;87083.34;;;-145.32;100.00
14041;BME280;7095;51.388;6.196;2023-02-19T11:31:22;86826.34;;;-145.32;100.00
14041;BME280;7095;51.388;6.196;2023-02-19T11:33:56;86569.41;;;-145.32;100.00
14041;BME280;7095;51.388;6.196;2023-02-19T11:36:31;82460.72;;;-145.32;100.00
14041;BME280;7095;51.388;6.196;2023-02-19T11:39:17;81947.50;;;-145.32;100.00
14041;BME280;7095;51.388;6.196;2023-02-19T11:42:10;82460.72;;;-145.32;100.00
14041;BME280;7095;51.388;6.196;2023-02-19T11:44:55;80151.75;;;-145.32;100.00
14041;BME280;7095;51.388;6.196;2023-02-19T11:47:43;74770.16;;;-145.32;100.00
14041;BME280;7095;51.388;6.196;2023-02-19T11:50:20;76050.72;;;-145.32;100.00
14041;BME280;7095;51.388;6.196;2023-02-19T11:53:02;72978.16;;;-145.32;100.00
14041;BME280;7095;51.388;6.196;2023-02-19T11:55:48;70667.56;;;-145.32;100.00
14041;BME280;7095;51.388;6.196;2023-02-19T11:58:38;68466.34;;;-145.32;100.00
14041;BME280;7095;51.388;6.196;2023-02-19T12:01:22;68682.00;;;-145.32;100.00
14041;BME280;7095;51.388;6.196;2023-02-19T12:04:28;66266.56;;;-145.32;100.00
14041;BME280;7095;51.388;6.196;2023-02-19T12:07:05;62941.59;;;-145.32;100.00
14041;BME280;7095;51.388;6.196;2023-02-19T12:09:52;60691.56;;;-145.32;100.00
14041;BME280;7095;51.388;6.196;2023-02-19T12:12:34;59137.97;;;-145.32;100.00
14041;BME280;7095;51.388;6.196;2023-02-19T12:15:21;58265.84;;;-145.32;100.00
14041;BME280;7095;51.388;6.196;2023-02-19T12:18:13;56944.19;;;-145.32;100.00
14041;BME280;7095;51.388;6.196;2023-02-19T12:20:54;57254.63;;;-145.32;100.00
14041;BME280;7095;51.388;6.196;2023-02-19T12:23:45;56942.19;;;-145.32;100.00
14041;BME280;7095;51.388;6.196;2023-02-19T12:26:21;56478.53;;;-145.32;100.00
14041;BME280;7095;51.388;6.196;2023-02-19T12:29:17;56617.81;;;-145.32;100.00
14041;BME280;7095;51.388;6.196;2023-02-19T12:32:11;56207.94;;;-145.32;100.00
14041;BME280;7095;51.388;6.196;2023-02-19T12:34:59;56355.16;;;-145.32;100.00
14041;BME280;7095;51.388;6.196;2023-02-19T12:37:39;56512.34;;;-145.32;100.00
14041;BME280;7095;51.388;6.196;2023-02-19T12:40:21;56757.13;;;-145.32;100.00
14041;BME280;7095;51.388;6.196;2023-02-19T12:43:03;56695.41;;;-145.32;100.00
14041;BME280;7095;51.388;6.196;2023-02-19T12:45:39;57216.81;;;-145.32;100.00
14041;BME280;7095;51.388;6.196;2023-02-19T12:48:17;57175.03;;;-145.32;100.00
14041;BME280;7095;51.388;6.196;2023-02-19T12:50:54;56936.22;;;-145.32;100.00
14041;BME280;7095;51.388;6.196;2023-02-19T12:53:32;56603.88;;;-145.32;100.00
14041;BME280;7095;51.388;6.196;2023-02-19T12:56:07;56389.00;;;-145.32;100.00
14041;BME280;7095;51.388;6.196;2023-02-19T12:58:41;56739.19;;;-145.32;100.00
14041;BME280;7095;51.388;6.196;2023-02-19T13:01:17;56152.22;;;-145.32;100.00
14041;BME280;7095;51.388;6.196;2023-02-19T13:03:50;55650.88;;;-145.32;100.00
14041;BME280;7095;51.388;6.196;2023-02-19T13:06:31;55722.47;;;-145.32;100.00
14041;BME280;7095;51.388;6.196;2023-02-19T13:09:05;55455.91;;;-145.32;100.00